Welcome to our Virtual Airline
Sign-in:

Flight DTM0213

  • Submitted By: Thomas Menzel
  • Departure Airport: Port Williams SPB (KPR)
  • Arrival Airport: Homer (PAHO)
  • Aircraft: SOLOY T206H (NT206MM)
  • Flight Time: 00.47.28
  • Date Submitted: 21/02/15
  • Route: FLY PLN
  • Status: Accepted
Flight Details
Gross Revenue:
(4 load / $ 0.00 per unit
$ 0.00
Fuel Cost:
(63.9565 fuel used @ 0 / unit)
$ 0.00

Additional Log Information:

View Log

[13:19] ----- Flight Opened -----
[13:19] Cigar Box - 1.1.4.0
[13:19] FS: Prepar3D V4
[13:19] FSUIPC: v6
[13:19] Flight Number: DTM0213
[13:19] FS Aircraft: Soloy MK2 USCG Float
[13:19] FS Model: C206
[13:19] FS Type: Cessna
[13:19] Departure: KPR
[13:19] Arrival: PAHO
[13:19] Flight Level: 3000
[13:19] Flight Type: H
[13:19] Passengers: 4
[13:19] FOB: 516 lbs
[13:19] Gate: n/a
[13:19] NOTE: Parking Brake Ignored
[13:19] Crash Detection: Disabled
[13:19] Engines: 1 Turboprop
[13:19] NOTE: Boarding has started
[13:19] Landing Gear: Retracted
[13:19] Engine 1: Started
[13:19] Light Data: Navigation ON
[13:19] Light Data: Beacon ON
[13:19] Light Data: Landing lights ON
[13:19] Light Data: Strobe lights ON
[13:19] Main Door Closed
[13:19] COM1: 122.80
[13:19] COM2: 127.80
[13:19] Transponder: 7000
[13:19] NAV1: 111.50
[13:19] NAV2: 110.60
[13:19] ADF1: 284.0
[13:19] ADF2: 240.0
[13:19] Navigation Mode: GPS
[13:19] Navigation Mode: GPS
[13:19] NOTE: Taxi started
[13:21] Flaps: Position 1
[13:21] NOTE: ----- TAKE OFF -----
[13:21] Speed Data: 68 knots GS | 69 knots TAS | 70 knots IAS | 136 fpm VS
[13:21] FOB: 513 lbs
[13:21] Heading: 117° | Pitch: 13° | Bank: -3°
[13:21] Aircraft Weight: 3792.94 lbs
[13:21] Nearest Airport: KPR | 0.27 miles
[13:21] Runway: ???
[13:21] Ground Surface: Water
[13:21] Ground Condition: Snow
[13:21] NOTE: Weather Report
[13:21] Wind 44° | 3 knots
[13:21] OAT: 1° C | TAT: 2° C | Precipitation: Light Rain | Dew Point: 0° C
[13:21] Visibility: 4 miles
[13:21] METAR: KPRN 151158Z AUTO 01005KT 3/4SM BR VV001 06/04 A2991 RMK AO2 SLP077 T00610044 10078 20061 58015 KPRX 151156Z AUTO 34017KT 1 3/4SM -SN BR OVC013 M15/M17 A3027 RMK AO2 SLP270 P0000 60000 T11501167 11128 21150 53005 FZRANO KPRO 151155Z AUTO 01009KT 10SM CLR M24/M29 A3054 RMK AO2 T12401290 11219 21240 KPRG 151155Z AUTO 35006KT 2SM -SN OVC019 M15/M18 A3036 RMK AO2 T11551177 11155 21165 KPRS 151155Z AUTO 10SM OVC022 M07/M12 A3022 RMK AO2 T10711122 11068 21074 KPRC 151153Z 17004KT 10SM CLR M03/M06 A2993 RMK AO2 SLP123 T10331061 10011 21033 56009 KPRB 151153Z AUTO 10003KT 10SM OVC022 08/06 A3010 RMK AO2 SLP193 T00830056 10106 20072 55010
[13:21] NOTE: Climb started
[13:21] Flaps: Position 0
[13:21] Speed Data: 69 knots GS | 71 knots TAS | 73 knots IAS | 1023 fpm VS
[13:21] Light Data: Landing lights OFF
[13:21] Altitude Data: 101 ft AGL | 101 ft AMSL
[13:21] View Mode: Virtual Cockpit
[13:23] Autopilot: Engaged
[13:23] Altitude Data: 541 ft AGL | 541 ft AMSL
[13:28] Autopilot: Disengaged
[13:28] Altitude Data: 610 ft AGL | 610 ft AMSL
[13:29] Autopilot: Engaged
[13:29] Altitude Data: 101 ft AGL | 101 ft AMSL
[13:40] Autopilot: Disengaged
[13:40] Altitude Data: 643 ft AGL | 643 ft AMSL
[13:41] Autopilot: Engaged
[13:41] Altitude Data: 649 ft AGL | 649 ft AMSL
[13:57] COM1: 123.60
[13:57] Light Data: Landing lights ON
[13:57] Altitude Data: 597 ft AGL | 597 ft AMSL
[13:58] Flaps: Position 1
[13:58] Speed Data: 103 knots GS | 107 knots TAS | 109 knots IAS | 35 fpm VS
[14:01] Landing Gear: Extended
[14:01] Speed Data: 95 knots GS | 100 knots TAS | 102 knots IAS | -6 fpm VS
[14:01] Altitude Data: 600 ft AGL | 600 ft AMSL
[14:02] Autopilot: Disengaged
[14:02] Altitude Data: 597 ft AGL | 597 ft AMSL
[14:02] Flaps: Position 2
[14:02] Speed Data: 97 knots GS | 101 knots TAS | 103 knots IAS | -138 fpm VS
[14:03] NOTE: ----- LANDED -----
[14:03] Landing Rate: -188.39 fpm
[14:03] Speed Data: 60 knots GS | 65 knots TAS | 66 knots IAS | -187 fpm VS
[14:03] FOB: 379 lbs
[14:03] Heading: 44° | Pitch: 2° | Bank: -1°
[14:03] Aircraft Weight: 3658.54 lbs
[14:03] Nearest Airport: PAHO | 0.31 miles
[14:03] Runway: 4 - PAHO
[14:03] Ground Surface: Asphalt
[14:03] Ground Condition: Snow
[14:03] NOTE: Weather Report
[14:03] Wind 53° | 4 knots
[14:03] OAT: -1° C | TAT: 0° C | Precipitation: None | Dew Point: -3° C
[14:03] Visibility: 55 miles
[14:03] METAR: PAHO 151153Z AUTO 07004KT 10SM BKN065 OVC080 M01/M03 A2962 RMK AO2 SLP030 T10061028 10011 21011 51005 TSNO
[14:03] View Mode: Virtual Cockpit
[14:03] NOTE: Taxi started
[14:04] Flaps: Position 0
[14:05] NOTE: Arrived
[14:05] Parking Brake: Engaged
[14:05] Parking Brake: Released
[14:06] Parking Brake: Engaged
[14:07] Gate: 7 - PAHO
[14:07] NOTE: Flight Completed
[14:07] FS Aircraft: Soloy MK2 USCG Float
[14:07] FS Model: C206
[14:07] FS Type: Cessna
[14:07] FOB: 375 lbs
[14:07] Fuel Used: 141 lbs
[14:07] Flight Time: 00:47:28
[14:07] Flight Time (Dawn): 00:00:00
[14:07] Flight Time (Day): 00:47:28
[14:07] Flight Time (Dusk): 00:00:00
[14:07] Flight Time (Night): 00:00:00
[14:07] Total Landings: 1
[14:07] MaxSim Rate: 1x
[14:07] Cigar Box - 1.1.4.0
[14:07] ----- Flight Closed -----

Route Map